Dati Storici

Data ora Umidita' aria (%) Temperatura aria (°C) Rad globale (W/m²) Gonioanemometro (°) Tacoanemometro (m/s) Pioggia (mm)
31-10-2012 16:10 84.2 % 10.596 63.463 64.324 2.592 0
31-10-2012 16:00 82.1 % 10.587 75.14 39.328 3.482 0
31-10-2012 15:50 81.6 % 10.637 39.334 30.238 5.001 0
31-10-2012 15:40 82.1 % 10.597 49.777 29.566 2.794 0
31-10-2012 15:30 83.9 % 10.613 58.849 41.233 1.522 0
31-10-2012 15:20 86 % 10.613 50.652 24.581 3.398 0
31-10-2012 15:10 87.8 % 10.637 106.042 27.193 3.105 0
31-10-2012 15:00 89.2 % 10.378 300.58 44.306 4.896 0
31-10-2012 14:50 89.9 % 10.123 136.315 10.434 2.34 0
31-10-2012 14:40 89.6 % 9.935 94.221 46.501 4.298 0
31-10-2012 14:30 88.3 % 9.888 108.927 27.667 4.397 0
31-10-2012 14:20 86.9 % 9.848 95.768 39.005 4.831 0
31-10-2012 14:10 84.8 % 9.957 69.18 25.599 1.744 0
31-10-2012 14:00 82.3 % 9.953 70.407 10.221 1.725 0
31-10-2012 13:50 78.9 % 10.012 109.53 77.825 4.417 0
31-10-2012 13:40 74.4 % 10.274 105.142 40.331 3.22 0
31-10-2012 13:30 69.5 % 10.366 122.837 37.937 3.505 0
31-10-2012 13:20 64.1 % 10.867 85.675 19.049 3.024 0
31-10-2012 13:10 61.8 % 11.069 95.476 52.5 3.059 0
31-10-2012 13:00 59.1 % 11.337 97.362 34.804 1.367 0

I dati sono presentati in modo automatico a scopo informativo. In seguito a verifica i dati possono subire modifiche o essere invalidati e non riportati negli archivi definitivi.